createdAt,value
2023-01-04T00:01:45.299Z,81.48
2023-01-04T00:04:30.882Z,81.10
2023-01-04T00:07:15.977Z,81.64
2023-01-04T00:10:01.255Z,81.57
2023-01-04T00:12:46.421Z,81.49
2023-01-04T00:15:32.014Z,81.70
2023-01-04T00:18:17.302Z,81.45
2023-01-04T00:21:14.027Z,81.93
2023-01-04T00:24:01.660Z,81.95
2023-01-04T00:26:46.991Z,81.78
2023-01-04T00:29:33.066Z,82.06
2023-01-04T00:32:18.383Z,81.73
2023-01-04T00:35:05.417Z,82.20
2023-01-04T00:37:52.277Z,82.32
2023-01-04T00:40:37.315Z,82.02
2023-01-04T00:43:22.770Z,82.49
2023-01-04T00:46:11.433Z,82.19
2023-01-04T00:49:00.443Z,81.83
2023-01-04T00:51:46.104Z,82.17
2023-01-04T00:54:31.507Z,82.39
2023-01-04T00:57:16.872Z,81.97
2023-01-04T01:00:02.254Z,81.88
2023-01-04T01:02:47.635Z,81.99
2023-01-04T01:05:35.398Z,81.68
2023-01-04T01:08:26.544Z,82.86
2023-01-04T01:11:12.431Z,82.59
2023-01-04T01:13:58.807Z,81.74
2023-01-04T01:16:54.900Z,82.37
2023-01-04T01:19:41.458Z,81.83
2023-01-04T01:22:26.639Z,82.22
2023-01-04T01:25:11.857Z,81.79
2023-01-04T01:27:57.126Z,81.75
2023-01-04T01:30:43.487Z,81.60
2023-01-04T01:33:28.561Z,81.43
2023-01-04T01:36:15.396Z,81.58
2023-01-04T01:39:00.869Z,81.90
2023-01-04T01:41:46.280Z,81.69
2023-01-04T01:44:46.681Z,81.57
2023-01-04T01:47:41.706Z,81.04
2023-01-04T01:50:31.301Z,80.53
2023-01-04T01:53:17.097Z,80.96
2023-01-04T01:56:05.782Z,80.77
2023-01-04T01:58:54.664Z,80.70
2023-01-04T02:01:40.561Z,81.30
2023-01-04T02:04:25.707Z,81.15
2023-01-04T02:07:13.655Z,81.07
2023-01-04T02:09:58.960Z,81.09
2023-01-04T02:12:45.943Z,80.88
2023-01-04T02:15:44.434Z,80.81
2023-01-04T02:18:39.330Z,80.67
2023-01-04T02:22:01.264Z,80.41
2023-01-04T02:25:25.273Z,80.58
2023-01-04T02:28:37.231Z,80.73
2023-01-04T02:31:31.699Z,81.04
2023-01-04T02:34:44.645Z,80.33
2023-01-04T02:37:41.322Z,81.41
2023-01-04T02:40:59.462Z,80.83
2023-01-04T02:44:17.125Z,80.24
2023-01-04T02:47:15.845Z,80.79
2023-01-04T02:50:27.698Z,81.25
2023-01-04T02:53:16.853Z,81.72
2023-01-04T02:56:18.535Z,81.45
2023-01-04T02:59:22.381Z,81.17
2023-01-04T03:02:57.656Z,81.01
2023-01-04T03:06:16.040Z,81.40
2023-01-04T03:09:13.279Z,81.46
2023-01-04T03:12:24.561Z,81.11
2023-01-04T03:15:23.654Z,81.49
2023-01-04T03:18:19.031Z,81.47
2023-01-04T03:21:07.722Z,81.44
2023-01-04T03:24:14.927Z,81.11
2023-01-04T03:27:25.304Z,81.70
2023-01-04T03:30:32.818Z,81.92
2023-01-04T03:33:37.581Z,81.73
2023-01-04T03:36:28.858Z,82.04
2023-01-04T03:39:57.511Z,82.08
2023-01-04T03:43:08.046Z,81.99
2023-01-04T03:46:20.656Z,81.77
2023-01-04T03:49:10.415Z,81.50
2023-01-04T03:52:00.313Z,81.63
2023-01-04T03:54:48.755Z,81.64
2023-01-04T03:57:35.309Z,81.30
2023-01-04T04:00:20.917Z,81.69
2023-01-04T04:03:12.229Z,81.37
2023-01-04T04:06:16.410Z,82.04
2023-01-04T04:09:01.962Z,81.28
2023-01-04T04:11:48.625Z,81.16
2023-01-04T04:14:34.091Z,81.60
2023-01-04T04:17:19.509Z,82.20
2023-01-04T04:20:05.403Z,81.82
2023-01-04T04:22:50.554Z,81.59
2023-01-04T04:25:35.991Z,81.67
2023-01-04T04:28:21.387Z,81.96
2023-01-04T04:31:07.141Z,81.77
2023-01-04T04:33:52.154Z,82.17
2023-01-04T04:36:37.867Z,81.68
2023-01-04T04:39:23.028Z,82.17
2023-01-04T04:42:09.117Z,82.20
2023-01-04T04:44:54.549Z,82.56
2023-01-04T04:47:40.071Z,82.35
2023-01-04T04:50:25.307Z,82.15
2023-01-04T04:53:10.592Z,82.56
2023-01-04T04:55:56.157Z,82.13
2023-01-04T04:58:41.449Z,82.11
2023-01-04T05:01:26.905Z,82.97
2023-01-04T05:04:16.564Z,82.02
2023-01-04T05:07:03.360Z,82.09
2023-01-04T05:09:50.496Z,81.94
2023-01-04T05:12:57.969Z,82.04
2023-01-04T05:15:46.771Z,81.51
2023-01-04T05:18:32.694Z,82.28
2023-01-04T05:21:20.277Z,81.49
2023-01-04T05:24:05.811Z,81.36
2023-01-04T05:26:50.903Z,82.38
2023-01-04T05:29:55.014Z,81.68
2023-01-04T05:32:40.173Z,81.69
2023-01-04T05:35:26.236Z,81.53
2023-01-04T05:38:11.558Z,81.50
2023-01-04T05:40:56.942Z,81.44
2023-01-04T05:43:42.233Z,81.49
2023-01-04T05:46:27.740Z,81.85
2023-01-04T05:49:12.682Z,81.50
2023-01-04T05:51:58.181Z,81.39
2023-01-04T05:54:43.728Z,80.30
2023-01-04T05:57:29.048Z,81.26
2023-01-04T06:00:14.843Z,81.36
2023-01-04T06:03:00.071Z,81.21
2023-01-04T06:05:50.281Z,81.03
2023-01-04T06:08:35.910Z,80.24
2023-01-04T06:11:27.216Z,80.69
2023-01-04T06:14:13.169Z,80.47
2023-01-04T06:16:58.852Z,80.39
2023-01-04T06:19:44.120Z,80.34
2023-01-04T06:22:29.964Z,80.51
2023-01-04T06:25:15.771Z,80.29
2023-01-04T06:28:01.126Z,80.25
2023-01-04T06:30:46.813Z,80.20
2023-01-04T06:33:32.595Z,79.83
2023-01-04T06:36:19.843Z,80.37
2023-01-04T06:39:06.191Z,79.79
2023-01-04T06:41:51.578Z,79.75
2023-01-04T06:44:36.991Z,79.07
2023-01-04T06:47:22.672Z,78.90
2023-01-04T06:50:08.678Z,78.25
2023-01-04T06:52:53.952Z,78.15
2023-01-04T06:55:39.409Z,78.24
2023-01-04T06:58:25.177Z,77.93
2023-01-04T07:01:10.660Z,77.83
2023-01-04T07:03:55.864Z,77.39
2023-01-04T07:06:41.024Z,77.24
2023-01-04T07:09:26.484Z,77.34
2023-01-04T07:12:11.676Z,77.12
2023-01-04T07:14:57.127Z,76.18
2023-01-04T07:17:42.432Z,77.42
2023-01-04T07:20:27.951Z,77.65
2023-01-04T07:23:12.971Z,78.45
2023-01-04T07:26:01.672Z,79.88
2023-01-04T07:29:05.873Z,81.31
2023-01-04T07:31:52.529Z,81.99
2023-01-04T07:34:38.418Z,83.01
2023-01-04T07:37:24.073Z,83.31
2023-01-04T07:40:10.101Z,84.03
2023-01-04T07:42:59.421Z,84.78
2023-01-04T07:45:46.181Z,85.20
2023-01-04T07:48:31.472Z,86.18
2023-01-04T07:51:16.848Z,86.78
2023-01-04T07:54:01.952Z,86.98
2023-01-04T07:56:48.511Z,88.35
2023-01-04T07:59:33.746Z,89.20
2023-01-04T08:02:18.902Z,88.23
2023-01-04T08:05:04.620Z,90.08
2023-01-04T08:07:49.990Z,89.67
2023-01-04T08:10:36.176Z,90.46
2023-01-04T08:13:21.607Z,91.38
2023-01-04T08:16:08.027Z,92.05
2023-01-04T08:18:58.612Z,91.43
2023-01-04T08:21:44.349Z,92.23
2023-01-04T08:24:29.604Z,93.73
2023-01-04T08:27:15.136Z,93.43
2023-01-04T08:30:00.697Z,93.66
2023-01-04T08:32:46.601Z,93.88
2023-01-04T08:35:32.024Z,94.52
2023-01-04T08:38:57.665Z,94.08
2023-01-04T08:41:56.135Z,95.00
2023-01-04T08:44:28.014Z,95.43
2023-01-04T08:47:13.096Z,95.24
2023-01-04T08:49:59.448Z,94.44
2023-01-04T08:52:46.319Z,95.69
2023-01-04T08:55:31.705Z,96.50
2023-01-04T08:58:17.205Z,95.89
2023-01-04T09:01:05.167Z,96.64
2023-01-04T09:03:50.354Z,96.02
2023-01-04T09:06:37.460Z,97.32
2023-01-04T09:09:22.836Z,98.08
2023-01-04T09:12:08.304Z,98.16
2023-01-04T09:14:53.530Z,98.11
2023-01-04T09:17:51.944Z,98.06
2023-01-04T09:20:44.437Z,98.18
2023-01-04T09:23:30.961Z,100.00
2023-01-04T09:26:21.514Z,100.00
2023-01-04T09:29:06.803Z,100.00
2023-01-04T09:31:52.112Z,100.00
2023-01-04T09:34:37.466Z,100.00
2023-01-04T09:37:22.997Z,100.00
2023-01-04T09:40:18.697Z,100.00
2023-01-04T09:43:19.986Z,100.00
2023-01-04T09:46:12.102Z,100.00
2023-01-04T09:49:13.095Z,97.88
2023-01-04T09:52:03.756Z,98.53
2023-01-04T09:55:04.982Z,100.00
2023-01-04T09:58:37.942Z,100.00
2023-01-04T10:01:36.178Z,100.00
2023-01-04T10:04:41.943Z,95.71
2023-01-04T10:07:29.713Z,92.97
2023-01-04T10:10:17.896Z,99.92
2023-01-04T10:13:30.958Z,100.00
2023-01-04T10:17:20.284Z,96.39
2023-01-04T10:21:21.806Z,95.78
2023-01-04T10:23:51.672Z,97.96
2023-01-04T10:26:45.313Z,96.50
2023-01-04T10:29:56.629Z,98.16
2023-01-04T10:32:45.657Z,97.71
2023-01-04T10:35:35.298Z,100.00
2023-01-04T10:38:25.754Z,98.82
2023-01-04T10:41:21.309Z,95.58
2023-01-04T10:44:22.035Z,95.99
2023-01-04T10:47:27.130Z,96.81
2023-01-04T10:50:22.273Z,95.57
2023-01-04T10:53:19.640Z,96.17
2023-01-04T10:56:25.651Z,94.15
2023-01-04T10:59:29.714Z,95.40
2023-01-04T11:02:26.152Z,96.14
2023-01-04T11:05:37.596Z,95.05
2023-01-04T11:08:46.926Z,97.95
2023-01-04T11:11:46.422Z,95.44
2023-01-04T11:14:37.028Z,96.55
2023-01-04T11:17:24.834Z,94.83
2023-01-04T11:20:10.950Z,92.34
2023-01-04T11:23:05.315Z,94.53
2023-01-04T11:25:57.542Z,91.68
2023-01-04T11:28:49.598Z,90.05
2023-01-04T11:31:49.400Z,91.01
2023-01-04T11:35:04.383Z,93.37
2023-01-04T11:37:49.625Z,94.55
2023-01-04T11:40:35.835Z,92.70
2023-01-04T11:43:22.929Z,91.43
2023-01-04T11:46:17.687Z,93.72
2023-01-04T11:49:03.191Z,93.61
2023-01-04T11:51:48.662Z,93.92
2023-01-04T11:54:34.045Z,94.42
2023-01-04T11:57:20.315Z,95.00
2023-01-04T12:00:23.861Z,92.23
2023-01-04T12:03:13.978Z,95.24
2023-01-04T12:05:59.550Z,92.73
2023-01-04T12:08:44.889Z,97.68
2023-01-04T12:11:34.159Z,93.47
2023-01-04T12:14:32.520Z,92.73
2023-01-04T12:17:47.965Z,91.28
2023-01-04T12:20:33.488Z,96.02
2023-01-04T12:23:20.352Z,95.10
2023-01-04T12:26:08.770Z,92.97
2023-01-04T12:29:24.764Z,92.14
2023-01-04T12:32:13.472Z,91.98
2023-01-04T12:34:58.853Z,94.49
2023-01-04T12:37:48.424Z,94.47
2023-01-04T12:40:48.770Z,92.77
2023-01-04T12:43:43.114Z,93.75
2023-01-04T12:46:50.440Z,94.26
2023-01-04T12:49:41.656Z,95.27
2023-01-04T12:52:37.804Z,96.72
2023-01-04T12:55:52.087Z,97.12
2023-01-04T12:59:23.714Z,97.94
2023-01-04T13:02:28.709Z,98.75
2023-01-04T13:08:22.647Z,100.00
2023-01-04T13:11:32.426Z,100.00
2023-01-04T13:14:27.695Z,100.00
2023-01-04T13:17:25.732Z,100.00
2023-01-04T13:20:23.679Z,100.00
2023-01-04T13:23:12.798Z,100.00
2023-01-04T13:26:26.710Z,100.00
2023-01-04T13:29:27.324Z,100.00
2023-01-04T13:32:23.444Z,100.00
2023-01-04T13:35:14.619Z,100.00
2023-01-04T13:38:01.212Z,100.00
2023-01-04T13:40:49.602Z,100.00
2023-01-04T13:43:54.209Z,100.00
2023-01-04T13:46:43.100Z,100.00
2023-01-04T13:49:29.216Z,100.00
2023-01-04T13:55:35.416Z,100.00
2023-01-04T13:58:23.384Z,100.00
2023-01-04T14:01:21.391Z,100.00
2023-01-04T14:04:14.347Z,100.00
2023-01-04T14:07:01.594Z,100.00
2023-01-04T14:09:50.188Z,100.00
2023-01-04T14:12:36.485Z,100.00
2023-01-04T14:15:24.843Z,100.00
2023-01-04T14:18:31.309Z,100.00
2023-01-04T14:21:17.968Z,100.00
2023-01-04T14:24:03.479Z,100.00
2023-01-04T14:26:48.713Z,100.00
2023-01-04T14:29:34.453Z,100.00
2023-01-04T14:32:19.896Z,100.00
2023-01-04T14:35:11.564Z,100.00
2023-01-04T14:38:06.025Z,100.00
2023-01-04T14:40:51.133Z,100.00
2023-01-04T14:43:49.624Z,100.00
2023-01-04T14:46:35.346Z,100.00
2023-01-04T14:49:22.175Z,100.00
2023-01-04T14:52:20.987Z,100.00
2023-01-04T14:55:06.903Z,100.00
2023-01-04T14:57:52.035Z,100.00
2023-01-04T15:00:37.340Z,100.00
2023-01-04T15:03:22.906Z,100.00
2023-01-04T15:06:08.735Z,100.00
2023-01-04T15:08:54.079Z,100.00
2023-01-04T15:11:39.289Z,98.15
2023-01-04T15:14:24.882Z,96.96
2023-01-04T15:17:10.331Z,98.18
2023-01-04T15:19:55.678Z,98.24
